SXS2ZN EDDN-LTAI
Flight info
| Callsign | SXS2ZN |
|---|---|
| Flight time | 2h 45m |
| Altitude | 35000 |
| Route | RODIS1C RODIS L604 LAMSI DCT SASAL DCT BABIT/N0456F370 DCT LULIK DCT NIVIS DCT BGD DCT NEPOS DCT NISVA DCT NIKTI UN127 RIKSO UP14 LAVTA UN135 NESIL |
| Aircraft | B738/M-SDE2E3FGHIRWXY/LB1 |
Departure
| Time | 2026-05-05 02:08 |
|---|---|
| Airport | Nuremberg Airport (EDDN) |
Arrival
| Time | 2026-05-05 04:53 |
|---|---|
| Airport | Antalya International Airport (LTAI) |
| Time | Latitude | Longitude | Altitude | Speed | Heading |
|---|---|---|---|---|---|
| 2026-05-05 01:55 | 49.49517 | 11.07790 | 1025 ft | 0 kts | 188° |
| 2026-05-05 02:00 | 49.49520 | 11.07791 | 1025 ft | 3 kts | 189° |
| 2026-05-05 02:00 | 49.49545 | 11.07799 | 1025 ft | 4 kts | 200° |
| 2026-05-05 02:01 | 49.49568 | 11.07818 | 1026 ft | 4 kts | 227° |
| 2026-05-05 02:01 | 49.49578 | 11.07848 | 1026 ft | 2 kts | 277° |
| 2026-05-05 02:01 | 49.49578 | 11.07850 | 1026 ft | 1 kts | 278° |
| 2026-05-05 02:03 | 49.49580 | 11.07826 | 1024 ft | 6 kts | 278° |
| 2026-05-05 02:03 | 49.49609 | 11.07771 | 1023 ft | 7 kts | 343° |
| 2026-05-05 02:03 | 49.49658 | 11.07768 | 1024 ft | 7 kts | 349° |
| 2026-05-05 02:04 | 49.49690 | 11.07681 | 1021 ft | 14 kts | 276° |
| 2026-05-05 02:04 | 49.49706 | 11.07508 | 1023 ft | 18 kts | 278° |
| 2026-05-05 02:04 | 49.49725 | 11.07320 | 1022 ft | 17 kts | 278° |
| 2026-05-05 02:04 | 49.49743 | 11.07138 | 1021 ft | 17 kts | 278° |
| 2026-05-05 02:05 | 49.49760 | 11.06963 | 1019 ft | 16 kts | 278° |
| 2026-05-05 02:05 | 49.49777 | 11.06794 | 1018 ft | 16 kts | 279° |
| 2026-05-05 02:05 | 49.49793 | 11.06631 | 1019 ft | 16 kts | 278° |
| 2026-05-05 02:05 | 49.49814 | 11.06420 | 1018 ft | 23 kts | 278° |
| 2026-05-05 02:06 | 49.49837 | 11.06179 | 1018 ft | 20 kts | 278° |
| 2026-05-05 02:06 | 49.49868 | 11.05997 | 1020 ft | 16 kts | 312° |
| 2026-05-05 02:06 | 49.49970 | 11.05930 | 1024 ft | 16 kts | 347° |
| 2026-05-05 02:06 | 49.50045 | 11.05993 | 1026 ft | 13 kts | 78° |
| 2026-05-05 02:07 | 49.50028 | 11.06199 | 1023 ft | 40 kts | 98° |
| 2026-05-05 02:07 | 49.49950 | 11.06990 | 1023 ft | 108 kts | 98° |
| 2026-05-05 02:07 | 49.49812 | 11.08403 | 1038 ft | 161 kts | 97° |
| 2026-05-05 02:07 | 49.49632 | 11.10208 | 1487 ft | 175 kts | 98° |
| 2026-05-05 02:08 | 49.49421 | 11.12095 | 2191 ft | 183 kts | 97° |
| 2026-05-05 02:08 | 49.49226 | 11.14070 | 2813 ft | 194 kts | 97° |
| 2026-05-05 02:08 | 49.49017 | 11.16251 | 3030 ft | 217 kts | 97° |
| 2026-05-05 02:08 | 49.48785 | 11.18647 | 3284 ft | 234 kts | 97° |
| 2026-05-05 02:09 | 49.48535 | 11.21209 | 3560 ft | 253 kts | 98° |
| 2026-05-05 02:09 | 49.48266 | 11.23944 | 4111 ft | 263 kts | 98° |
| 2026-05-05 02:09 | 49.48052 | 11.26749 | 4877 ft | 266 kts | 93° |
| 2026-05-05 02:09 | 49.48027 | 11.29653 | 5478 ft | 276 kts | 90° |
| 2026-05-05 02:10 | 49.48041 | 11.32627 | 6182 ft | 281 kts | 91° |
| 2026-05-05 02:10 | 49.48044 | 11.35660 | 6835 ft | 286 kts | 91° |
| 2026-05-05 02:10 | 49.48031 | 11.38729 | 7545 ft | 289 kts | 92° |
| 2026-05-05 02:10 | 49.48008 | 11.41837 | 8240 ft | 293 kts | 93° |
| 2026-05-05 02:11 | 49.47982 | 11.44948 | 8930 ft | 296 kts | 93° |
| 2026-05-05 02:11 | 49.47951 | 11.48137 | 9615 ft | 300 kts | 94° |
| 2026-05-05 02:11 | 49.47918 | 11.51375 | 10224 ft | 307 kts | 94° |
| 2026-05-05 02:11 | 49.47880 | 11.54775 | 10390 ft | 330 kts | 94° |
| 2026-05-05 02:12 | 49.47853 | 11.57208 | 10507 ft | 344 kts | 93° |
| 2026-05-05 02:12 | 49.47765 | 11.64972 | 10868 ft | 381 kts | 93° |
| 2026-05-05 02:12 | 49.47720 | 11.69085 | 11322 ft | 388 kts | 93° |
| 2026-05-05 02:13 | 49.47674 | 11.73249 | 11946 ft | 390 kts | 93° |
| 2026-05-05 02:13 | 49.47626 | 11.77424 | 12644 ft | 392 kts | 93° |
| 2026-05-05 02:13 | 49.47576 | 11.81571 | 13288 ft | 395 kts | 93° |
| 2026-05-05 02:13 | 49.47523 | 11.85807 | 13913 ft | 398 kts | 93° |
| 2026-05-05 02:14 | 49.47466 | 11.90090 | 14480 ft | 402 kts | 93° |
| 2026-05-05 02:14 | 49.47382 | 11.94413 | 15055 ft | 406 kts | 97° |
| 2026-05-05 02:14 | 49.46726 | 11.98610 | 15641 ft | 405 kts | 112° |
| 2026-05-05 02:14 | 49.45733 | 12.02673 | 16263 ft | 408 kts | 113° |
| 2026-05-05 02:15 | 49.44732 | 12.06778 | 16810 ft | 412 kts | 113° |
| 2026-05-05 02:15 | 49.43733 | 12.10935 | 17354 ft | 417 kts | 112° |
| 2026-05-05 02:15 | 49.42738 | 12.15140 | 17917 ft | 420 kts | 112° |
| 2026-05-05 02:15 | 49.41744 | 12.19382 | 18488 ft | 423 kts | 112° |
| 2026-05-05 02:16 | 49.40747 | 12.23654 | 18952 ft | 427 kts | 112° |
| 2026-05-05 02:16 | 49.39739 | 12.27974 | 19427 ft | 430 kts | 112° |
| 2026-05-05 02:16 | 49.38739 | 12.32254 | 19886 ft | 434 kts | 112° |
| 2026-05-05 02:16 | 49.37716 | 12.36625 | 20367 ft | 437 kts | 112° |
| 2026-05-05 02:17 | 49.36683 | 12.41026 | 20838 ft | 440 kts | 112° |
| 2026-05-05 02:17 | 49.35640 | 12.45460 | 21277 ft | 444 kts | 112° |
| 2026-05-05 02:17 | 49.34565 | 12.49912 | 21715 ft | 446 kts | 115° |
| 2026-05-05 02:17 | 49.33137 | 12.54120 | 22136 ft | 446 kts | 125° |
| 2026-05-05 02:18 | 49.31280 | 12.57922 | 22554 ft | 446 kts | 135° |
| 2026-05-05 02:18 | 49.29105 | 12.61309 | 22992 ft | 447 kts | 138° |
| 2026-05-05 02:18 | 49.26885 | 12.64658 | 23404 ft | 450 kts | 137° |
| 2026-05-05 02:18 | 49.24655 | 12.68040 | 23798 ft | 452 kts | 137° |
| 2026-05-05 02:19 | 49.22429 | 12.71453 | 24184 ft | 453 kts | 137° |
| 2026-05-05 02:19 | 49.20206 | 12.74892 | 24547 ft | 455 kts | 137° |
| 2026-05-05 02:19 | 49.17976 | 12.78346 | 24902 ft | 457 kts | 137° |
| 2026-05-05 02:19 | 49.15738 | 12.81808 | 25253 ft | 459 kts | 137° |
| 2026-05-05 02:20 | 49.13483 | 12.85283 | 25588 ft | 461 kts | 137° |
| 2026-05-05 02:20 | 49.11215 | 12.88766 | 25928 ft | 463 kts | 137° |
| 2026-05-05 02:20 | 49.08938 | 12.92260 | 26256 ft | 465 kts | 137° |
| 2026-05-05 02:20 | 49.06652 | 12.95763 | 26579 ft | 467 kts | 137° |
| 2026-05-05 02:21 | 49.04386 | 12.99232 | 26888 ft | 468 kts | 137° |
| 2026-05-05 02:21 | 49.02083 | 13.02755 | 27190 ft | 470 kts | 137° |
| 2026-05-05 02:21 | 48.99767 | 13.06292 | 27487 ft | 472 kts | 137° |
| 2026-05-05 02:21 | 48.97442 | 13.09839 | 27785 ft | 473 kts | 137° |
| 2026-05-05 02:22 | 48.95118 | 13.13381 | 28208 ft | 472 kts | 137° |
| 2026-05-05 02:22 | 48.92801 | 13.16909 | 28713 ft | 469 kts | 137° |
| 2026-05-05 02:22 | 48.90501 | 13.20405 | 29185 ft | 467 kts | 137° |
| 2026-05-05 02:22 | 48.88201 | 13.23893 | 29585 ft | 466 kts | 137° |
| 2026-05-05 02:23 | 48.85899 | 13.27375 | 29956 ft | 466 kts | 137° |
| 2026-05-05 02:23 | 48.83601 | 13.30842 | 30308 ft | 465 kts | 138° |
| 2026-05-05 02:23 | 48.81306 | 13.34297 | 30647 ft | 464 kts | 138° |
| 2026-05-05 02:23 | 48.79017 | 13.37742 | 30968 ft | 464 kts | 138° |
| 2026-05-05 02:24 | 48.76726 | 13.41184 | 31294 ft | 463 kts | 138° |
| 2026-05-05 02:24 | 48.74465 | 13.44580 | 31612 ft | 463 kts | 138° |
| 2026-05-05 02:24 | 48.72179 | 13.48009 | 31910 ft | 463 kts | 138° |
| 2026-05-05 02:24 | 48.69888 | 13.51442 | 32166 ft | 464 kts | 138° |
| 2026-05-05 02:25 | 48.67591 | 13.54876 | 32467 ft | 463 kts | 138° |
| 2026-05-05 02:25 | 48.65329 | 13.58350 | 32793 ft | 464 kts | 134° |
| 2026-05-05 02:25 | 48.63357 | 13.62207 | 33221 ft | 463 kts | 127° |
| 2026-05-05 02:25 | 48.61556 | 13.66224 | 33614 ft | 461 kts | 127° |
| 2026-05-05 02:26 | 48.59781 | 13.70267 | 33850 ft | 462 kts | 126° |
| 2026-05-05 02:26 | 48.58003 | 13.74322 | 34034 ft | 464 kts | 126° |
| 2026-05-05 02:26 | 48.56212 | 13.78379 | 34248 ft | 464 kts | 127° |
| 2026-05-05 02:26 | 48.54409 | 13.82423 | 34508 ft | 463 kts | 127° |
| 2026-05-05 02:27 | 48.52600 | 13.86447 | 34731 ft | 463 kts | 127° |
| 2026-05-05 02:27 | 48.50786 | 13.90461 | 34893 ft | 464 kts | 127° |
| 2026-05-05 02:27 | 48.48953 | 13.94496 | 34883 ft | 467 kts | 127° |
| 2026-05-05 02:28 | 48.45281 | 14.02559 | 34876 ft | 464 kts | 127° |
| 2026-05-05 02:28 | 48.41642 | 14.10528 | 34879 ft | 460 kts | 127° |
| 2026-05-05 02:29 | 48.38012 | 14.18454 | 34889 ft | 460 kts | 128° |
| 2026-05-05 02:29 | 48.34391 | 14.26336 | 34886 ft | 461 kts | 128° |
| 2026-05-05 02:30 | 48.30745 | 14.34252 | 34878 ft | 461 kts | 128° |
| 2026-05-05 02:30 | 48.27092 | 14.42162 | 34887 ft | 461 kts | 128° |
| 2026-05-05 02:31 | 48.23434 | 14.50057 | 34888 ft | 461 kts | 128° |
| 2026-05-05 02:31 | 48.19767 | 14.57951 | 34886 ft | 461 kts | 128° |
| 2026-05-05 02:32 | 48.16094 | 14.65833 | 34889 ft | 461 kts | 128° |
| 2026-05-05 02:32 | 48.12418 | 14.73701 | 34888 ft | 461 kts | 128° |
| 2026-05-05 02:33 | 48.08757 | 14.81513 | 34897 ft | 461 kts | 128° |
| 2026-05-05 02:33 | 48.05064 | 14.89371 | 34896 ft | 462 kts | 128° |
| 2026-05-05 02:34 | 48.01364 | 14.97218 | 34898 ft | 462 kts | 128° |
| 2026-05-05 02:34 | 47.97656 | 15.05063 | 34893 ft | 462 kts | 128° |
| 2026-05-05 02:35 | 47.93942 | 15.12899 | 34903 ft | 463 kts | 128° |
| 2026-05-05 02:35 | 47.90215 | 15.20736 | 34893 ft | 463 kts | 128° |
| 2026-05-05 02:36 | 47.86491 | 15.28548 | 34923 ft | 462 kts | 128° |
| 2026-05-05 02:36 | 47.82760 | 15.36350 | 34905 ft | 462 kts | 128° |
| 2026-05-05 02:37 | 47.79026 | 15.44138 | 34913 ft | 462 kts | 128° |
| 2026-05-05 02:37 | 47.75284 | 15.51918 | 34921 ft | 463 kts | 128° |
| 2026-05-05 02:38 | 47.71559 | 15.59644 | 34916 ft | 462 kts | 128° |
| 2026-05-05 02:38 | 47.67811 | 15.67393 | 34922 ft | 462 kts | 128° |
| 2026-05-05 02:39 | 47.64054 | 15.75139 | 34917 ft | 462 kts | 127° |
| 2026-05-05 02:39 | 47.60298 | 15.82862 | 34932 ft | 462 kts | 128° |
| 2026-05-05 02:40 | 47.56533 | 15.90582 | 34919 ft | 462 kts | 128° |
| 2026-05-05 02:40 | 47.52766 | 15.98284 | 34913 ft | 462 kts | 128° |
| 2026-05-05 02:41 | 47.48990 | 16.05983 | 34915 ft | 462 kts | 128° |
| 2026-05-05 02:41 | 47.45216 | 16.13657 | 34921 ft | 462 kts | 128° |
| 2026-05-05 02:42 | 47.41435 | 16.21323 | 34920 ft | 462 kts | 128° |
| 2026-05-05 02:42 | 47.37674 | 16.28929 | 34927 ft | 462 kts | 128° |
| 2026-05-05 02:43 | 47.33857 | 16.36626 | 34929 ft | 462 kts | 128° |
| 2026-05-05 02:43 | 47.30085 | 16.44217 | 34927 ft | 462 kts | 128° |
| 2026-05-05 02:44 | 47.26247 | 16.51795 | 34941 ft | 461 kts | 129° |
| 2026-05-05 02:44 | 47.22295 | 16.59237 | 34936 ft | 461 kts | 130° |
| 2026-05-05 02:45 | 47.18328 | 16.66650 | 34938 ft | 461 kts | 130° |
| 2026-05-05 02:45 | 47.14369 | 16.74069 | 34949 ft | 461 kts | 129° |
| 2026-05-05 02:46 | 47.10414 | 16.81486 | 34951 ft | 461 kts | 129° |
| 2026-05-05 02:46 | 47.06456 | 16.88897 | 34957 ft | 461 kts | 129° |
| 2026-05-05 02:47 | 47.02515 | 16.96256 | 34958 ft | 462 kts | 129° |
| 2026-05-05 02:47 | 46.98544 | 17.03651 | 34966 ft | 462 kts | 129° |
| 2026-05-05 02:48 | 46.94565 | 17.11038 | 34980 ft | 462 kts | 129° |
| 2026-05-05 02:48 | 46.90583 | 17.18412 | 34983 ft | 462 kts | 129° |
| 2026-05-05 02:49 | 46.86586 | 17.25794 | 34990 ft | 463 kts | 130° |
| 2026-05-05 02:49 | 46.82584 | 17.33165 | 34994 ft | 463 kts | 130° |
| 2026-05-05 02:50 | 46.78577 | 17.40526 | 34991 ft | 463 kts | 129° |
| 2026-05-05 02:50 | 46.74562 | 17.47882 | 34997 ft | 463 kts | 130° |
| 2026-05-05 02:51 | 46.70541 | 17.55229 | 35003 ft | 464 kts | 130° |
| 2026-05-05 02:51 | 46.66512 | 17.62572 | 35009 ft | 464 kts | 130° |
| 2026-05-05 02:52 | 46.62499 | 17.69865 | 35010 ft | 466 kts | 129° |
| 2026-05-05 02:52 | 46.60464 | 17.73556 | 35153 ft | 468 kts | 130° |
| 2026-05-05 02:52 | 46.58424 | 17.77252 | 35408 ft | 467 kts | 130° |
| 2026-05-05 02:52 | 46.56393 | 17.80927 | 35701 ft | 465 kts | 130° |
| 2026-05-05 02:53 | 46.54368 | 17.84587 | 35981 ft | 464 kts | 130° |
| 2026-05-05 02:53 | 46.52347 | 17.88233 | 36212 ft | 464 kts | 130° |
| 2026-05-05 02:53 | 46.50318 | 17.91890 | 36393 ft | 464 kts | 130° |
| 2026-05-05 02:53 | 46.48291 | 17.95538 | 36592 ft | 464 kts | 130° |
| 2026-05-05 02:54 | 46.46262 | 17.99184 | 36818 ft | 464 kts | 130° |
| 2026-05-05 02:54 | 46.44235 | 18.02821 | 36980 ft | 464 kts | 130° |
| 2026-05-05 02:54 | 46.42201 | 18.06467 | 37018 ft | 467 kts | 130° |
| 2026-05-05 02:55 | 46.38107 | 18.13791 | 37019 ft | 466 kts | 130° |
| 2026-05-05 02:55 | 46.34030 | 18.21067 | 37022 ft | 464 kts | 130° |
| 2026-05-05 02:56 | 46.29969 | 18.28294 | 37027 ft | 462 kts | 130° |
| 2026-05-05 02:56 | 46.25920 | 18.35482 | 37033 ft | 460 kts | 130° |
| 2026-05-05 02:57 | 46.21873 | 18.42647 | 37035 ft | 460 kts | 130° |
| 2026-05-05 02:57 | 46.17847 | 18.49755 | 37045 ft | 461 kts | 130° |
| 2026-05-05 02:58 | 46.13779 | 18.56922 | 37041 ft | 462 kts | 130° |
| 2026-05-05 02:58 | 46.09696 | 18.64095 | 37042 ft | 464 kts | 130° |
| 2026-05-05 02:59 | 46.05589 | 18.71292 | 37043 ft | 465 kts | 130° |
| 2026-05-05 02:59 | 46.01468 | 18.78498 | 37032 ft | 467 kts | 130° |
| 2026-05-05 03:00 | 45.97334 | 18.85709 | 37049 ft | 468 kts | 130° |
| 2026-05-05 03:00 | 45.93164 | 18.92913 | 37043 ft | 469 kts | 132° |
| 2026-05-05 03:01 | 45.88409 | 18.99332 | 37055 ft | 469 kts | 140° |
| 2026-05-05 03:01 | 45.83468 | 19.05463 | 37047 ft | 470 kts | 140° |
| 2026-05-05 03:02 | 45.78549 | 19.11639 | 37044 ft | 470 kts | 139° |
| 2026-05-05 03:02 | 45.74487 | 19.16801 | 37033 ft | 470 kts | 139° |
| 2026-05-05 03:03 | 45.69602 | 19.23018 | 37044 ft | 470 kts | 139° |
| 2026-05-05 03:03 | 45.64717 | 19.29219 | 37043 ft | 470 kts | 139° |
| 2026-05-05 03:04 | 45.59824 | 19.35410 | 37046 ft | 469 kts | 139° |
| 2026-05-05 03:04 | 45.54957 | 19.41554 | 37045 ft | 469 kts | 139° |
| 2026-05-05 03:05 | 45.50061 | 19.47718 | 37042 ft | 469 kts | 139° |
| 2026-05-05 03:05 | 45.45167 | 19.53867 | 37046 ft | 469 kts | 139° |
| 2026-05-05 03:06 | 45.40271 | 19.60007 | 37037 ft | 469 kts | 139° |
| 2026-05-05 03:06 | 45.35372 | 19.66138 | 37045 ft | 469 kts | 139° |
| 2026-05-05 03:07 | 45.30471 | 19.72257 | 37044 ft | 469 kts | 139° |
| 2026-05-05 03:07 | 45.25556 | 19.78379 | 37045 ft | 470 kts | 139° |
| 2026-05-05 03:08 | 45.20609 | 19.84446 | 37036 ft | 470 kts | 140° |
| 2026-05-05 03:08 | 45.15631 | 19.90473 | 37048 ft | 471 kts | 140° |
| 2026-05-05 03:09 | 45.10646 | 19.96505 | 37054 ft | 472 kts | 139° |
| 2026-05-05 03:09 | 45.05684 | 20.02506 | 37049 ft | 473 kts | 139° |
| 2026-05-05 03:10 | 45.00682 | 20.08547 | 37049 ft | 473 kts | 140° |
| 2026-05-05 03:10 | 44.95667 | 20.14588 | 37050 ft | 474 kts | 140° |
| 2026-05-05 03:11 | 44.90642 | 20.20625 | 37049 ft | 474 kts | 140° |
| 2026-05-05 03:11 | 44.85610 | 20.26660 | 37050 ft | 475 kts | 139° |
| 2026-05-05 03:12 | 44.80616 | 20.32768 | 37043 ft | 476 kts | 136° |
| 2026-05-05 03:12 | 44.75921 | 20.39331 | 37053 ft | 476 kts | 134° |
| 2026-05-05 03:13 | 44.71294 | 20.45982 | 37051 ft | 476 kts | 134° |
| 2026-05-05 03:13 | 44.66632 | 20.52607 | 37051 ft | 477 kts | 134° |
| 2026-05-05 03:14 | 44.61948 | 20.59190 | 37062 ft | 477 kts | 134° |
| 2026-05-05 03:14 | 44.57244 | 20.65767 | 37068 ft | 477 kts | 135° |
| 2026-05-05 03:15 | 44.52567 | 20.72291 | 37066 ft | 477 kts | 135° |
| 2026-05-05 03:15 | 44.47851 | 20.78857 | 37068 ft | 478 kts | 134° |
| 2026-05-05 03:16 | 44.43134 | 20.85409 | 37078 ft | 478 kts | 134° |
| 2026-05-05 03:16 | 44.38410 | 20.91955 | 37073 ft | 478 kts | 135° |
| 2026-05-05 03:17 | 44.33685 | 20.98488 | 37083 ft | 478 kts | 135° |
| 2026-05-05 03:17 | 44.28946 | 21.05023 | 37091 ft | 479 kts | 134° |
| 2026-05-05 03:18 | 44.24203 | 21.11548 | 37086 ft | 479 kts | 134° |
| 2026-05-05 03:18 | 44.19451 | 21.18071 | 37094 ft | 479 kts | 134° |
| 2026-05-05 03:19 | 44.12306 | 21.27850 | 37096 ft | 480 kts | 134° |
| 2026-05-05 03:19 | 44.07566 | 21.34318 | 37102 ft | 481 kts | 134° |
| 2026-05-05 03:20 | 44.02783 | 21.40831 | 37101 ft | 481 kts | 134° |
| 2026-05-05 03:20 | 43.97988 | 21.47331 | 37107 ft | 482 kts | 135° |
| 2026-05-05 03:21 | 43.93174 | 21.53805 | 37113 ft | 482 kts | 134° |
| 2026-05-05 03:21 | 43.88348 | 21.60280 | 37098 ft | 483 kts | 135° |
| 2026-05-05 03:22 | 43.83515 | 21.66753 | 37108 ft | 483 kts | 135° |
| 2026-05-05 03:22 | 43.78684 | 21.73213 | 37111 ft | 483 kts | 135° |
| 2026-05-05 03:23 | 43.73846 | 21.79666 | 37116 ft | 483 kts | 134° |
| 2026-05-05 03:23 | 43.69035 | 21.86068 | 37115 ft | 483 kts | 134° |
| 2026-05-05 03:24 | 43.64189 | 21.92503 | 37119 ft | 483 kts | 134° |
| 2026-05-05 03:24 | 43.59343 | 21.98921 | 37120 ft | 483 kts | 135° |
| 2026-05-05 03:25 | 43.54483 | 22.05342 | 37126 ft | 483 kts | 135° |
| 2026-05-05 03:25 | 43.49627 | 22.11743 | 37130 ft | 483 kts | 135° |
| 2026-05-05 03:26 | 43.44762 | 22.18143 | 37131 ft | 483 kts | 135° |
| 2026-05-05 03:26 | 43.39894 | 22.24529 | 37147 ft | 483 kts | 135° |
| 2026-05-05 03:27 | 43.35025 | 22.30904 | 37136 ft | 483 kts | 135° |
| 2026-05-05 03:27 | 43.30147 | 22.37275 | 37135 ft | 484 kts | 135° |
| 2026-05-05 03:28 | 43.25262 | 22.43640 | 37143 ft | 484 kts | 135° |
| 2026-05-05 03:28 | 43.20408 | 22.49949 | 37160 ft | 484 kts | 135° |
| 2026-05-05 03:29 | 43.15516 | 22.56296 | 37141 ft | 485 kts | 135° |
| 2026-05-05 03:29 | 43.10616 | 22.62636 | 37152 ft | 484 kts | 135° |
| 2026-05-05 03:30 | 43.05717 | 22.68962 | 37149 ft | 484 kts | 135° |
| 2026-05-05 03:30 | 43.00820 | 22.75273 | 37164 ft | 484 kts | 135° |
| 2026-05-05 03:31 | 42.95814 | 22.81426 | 37153 ft | 485 kts | 142° |
| 2026-05-05 03:31 | 42.90290 | 22.86719 | 37160 ft | 485 kts | 145° |
| 2026-05-05 03:32 | 42.84701 | 22.91868 | 37163 ft | 485 kts | 144° |
| 2026-05-05 03:32 | 42.79136 | 22.97062 | 37146 ft | 485 kts | 144° |
| 2026-05-05 03:33 | 42.73601 | 23.02285 | 37151 ft | 484 kts | 144° |
| 2026-05-05 03:33 | 42.68103 | 23.07482 | 37142 ft | 484 kts | 144° |
| 2026-05-05 03:34 | 42.62573 | 23.12697 | 37155 ft | 484 kts | 144° |
| 2026-05-05 03:34 | 42.57040 | 23.17900 | 37138 ft | 484 kts | 144° |
| 2026-05-05 03:35 | 42.51497 | 23.23100 | 37138 ft | 484 kts | 144° |
| 2026-05-05 03:35 | 42.45954 | 23.28287 | 37136 ft | 484 kts | 144° |
| 2026-05-05 03:36 | 42.40401 | 23.33473 | 37140 ft | 484 kts | 144° |
| 2026-05-05 03:36 | 42.34855 | 23.38641 | 37143 ft | 484 kts | 144° |
| 2026-05-05 03:37 | 42.29305 | 23.43802 | 37155 ft | 484 kts | 144° |
| 2026-05-05 03:37 | 42.23743 | 23.48962 | 37151 ft | 485 kts | 144° |
| 2026-05-05 03:38 | 42.18183 | 23.54109 | 37139 ft | 485 kts | 144° |
| 2026-05-05 03:38 | 42.12618 | 23.59250 | 37138 ft | 485 kts | 144° |
| 2026-05-05 03:39 | 42.07092 | 23.64344 | 37137 ft | 484 kts | 145° |
| 2026-05-05 03:39 | 42.01538 | 23.69453 | 37147 ft | 484 kts | 145° |
| 2026-05-05 03:40 | 41.95981 | 23.74553 | 37139 ft | 484 kts | 145° |
| 2026-05-05 03:40 | 41.90413 | 23.79653 | 37136 ft | 484 kts | 145° |
| 2026-05-05 03:41 | 41.84852 | 23.84735 | 37130 ft | 484 kts | 145° |
| 2026-05-05 03:41 | 41.79289 | 23.89809 | 37158 ft | 483 kts | 145° |
| 2026-05-05 03:42 | 41.73721 | 23.94876 | 37155 ft | 483 kts | 145° |
| 2026-05-05 03:42 | 41.68159 | 23.99927 | 37143 ft | 483 kts | 145° |
| 2026-05-05 03:43 | 41.62595 | 24.04970 | 37141 ft | 483 kts | 145° |
| 2026-05-05 03:43 | 41.57033 | 24.10002 | 37158 ft | 483 kts | 145° |
| 2026-05-05 03:44 | 41.51462 | 24.15015 | 37136 ft | 483 kts | 146° |
| 2026-05-05 03:44 | 41.45869 | 24.20000 | 37130 ft | 483 kts | 146° |
| 2026-05-05 03:45 | 41.40282 | 24.24971 | 37128 ft | 483 kts | 146° |
| 2026-05-05 03:45 | 41.34730 | 24.29906 | 37111 ft | 483 kts | 146° |
| 2026-05-05 03:46 | 41.29135 | 24.34871 | 37127 ft | 483 kts | 146° |
| 2026-05-05 03:46 | 41.23527 | 24.39839 | 37111 ft | 484 kts | 146° |
| 2026-05-05 03:47 | 41.17855 | 24.44640 | 37080 ft | 484 kts | 152° |
| 2026-05-05 03:47 | 41.11790 | 24.48530 | 37071 ft | 484 kts | 155° |
| 2026-05-05 03:48 | 41.05687 | 24.52303 | 37055 ft | 484 kts | 155° |
| 2026-05-05 03:48 | 40.99615 | 24.56167 | 37053 ft | 484 kts | 154° |
| 2026-05-05 03:49 | 40.93547 | 24.60063 | 37051 ft | 485 kts | 154° |
| 2026-05-05 03:49 | 40.88497 | 24.63276 | 37048 ft | 484 kts | 155° |
| 2026-05-05 03:50 | 40.82404 | 24.67089 | 37055 ft | 484 kts | 155° |
| 2026-05-05 03:50 | 40.76312 | 24.70904 | 37074 ft | 485 kts | 154° |
| 2026-05-05 03:51 | 40.70263 | 24.74839 | 37070 ft | 485 kts | 153° |
| 2026-05-05 03:51 | 40.64188 | 24.78725 | 37070 ft | 485 kts | 155° |
| 2026-05-05 03:52 | 40.58093 | 24.82544 | 37062 ft | 485 kts | 155° |
| 2026-05-05 03:52 | 40.52354 | 24.86154 | 37074 ft | 485 kts | 155° |
| 2026-05-05 03:53 | 40.46260 | 24.89977 | 37061 ft | 485 kts | 155° |
| 2026-05-05 03:53 | 40.40241 | 24.93747 | 37070 ft | 485 kts | 155° |
| 2026-05-05 03:54 | 40.34154 | 24.97552 | 37071 ft | 485 kts | 155° |
| 2026-05-05 03:54 | 40.28062 | 25.01352 | 37087 ft | 485 kts | 155° |
| 2026-05-05 03:55 | 40.21972 | 25.05145 | 37069 ft | 485 kts | 155° |
| 2026-05-05 03:55 | 40.15887 | 25.08926 | 37066 ft | 484 kts | 155° |
| 2026-05-05 03:56 | 40.09806 | 25.12697 | 37073 ft | 483 kts | 155° |
| 2026-05-05 03:56 | 40.03733 | 25.16457 | 37051 ft | 482 kts | 155° |
| 2026-05-05 03:57 | 39.97667 | 25.20205 | 37060 ft | 482 kts | 155° |
| 2026-05-05 03:57 | 39.91697 | 25.24166 | 37039 ft | 482 kts | 147° |
| 2026-05-05 03:58 | 39.86531 | 25.29703 | 37057 ft | 481 kts | 137° |
| 2026-05-05 03:58 | 39.81579 | 25.35471 | 37080 ft | 481 kts | 137° |
| 2026-05-05 03:59 | 39.76562 | 25.41234 | 37078 ft | 481 kts | 138° |
| 2026-05-05 03:59 | 39.71517 | 25.46954 | 37080 ft | 481 kts | 138° |
| 2026-05-05 04:00 | 39.66455 | 25.52666 | 37072 ft | 482 kts | 138° |
| 2026-05-05 04:00 | 39.61389 | 25.58373 | 37085 ft | 482 kts | 138° |
| 2026-05-05 04:01 | 39.56322 | 25.64073 | 37074 ft | 483 kts | 138° |
| 2026-05-05 04:01 | 39.51272 | 25.69744 | 37071 ft | 483 kts | 138° |
| 2026-05-05 04:02 | 39.46181 | 25.75448 | 37079 ft | 484 kts | 138° |
| 2026-05-05 04:02 | 39.41087 | 25.81146 | 37075 ft | 484 kts | 138° |
| 2026-05-05 04:03 | 39.35986 | 25.86839 | 37076 ft | 484 kts | 139° |
| 2026-05-05 04:03 | 39.30880 | 25.92529 | 37071 ft | 485 kts | 139° |
| 2026-05-05 04:04 | 39.25743 | 25.98169 | 37089 ft | 485 kts | 140° |
| 2026-05-05 04:04 | 39.20540 | 26.03718 | 37073 ft | 485 kts | 140° |
| 2026-05-05 04:05 | 39.15334 | 26.09258 | 37069 ft | 485 kts | 140° |
| 2026-05-05 04:05 | 39.10180 | 26.14756 | 37077 ft | 484 kts | 140° |
| 2026-05-05 04:06 | 39.04992 | 26.20288 | 37071 ft | 484 kts | 140° |
| 2026-05-05 04:06 | 38.99797 | 26.25817 | 37069 ft | 484 kts | 140° |
| 2026-05-05 04:07 | 38.94609 | 26.31326 | 37072 ft | 483 kts | 140° |
| 2026-05-05 04:07 | 38.89423 | 26.36824 | 37071 ft | 483 kts | 140° |
| 2026-05-05 04:08 | 38.84667 | 26.42835 | 37071 ft | 479 kts | 121° |
| 2026-05-05 04:08 | 38.83141 | 26.46548 | 37080 ft | 476 kts | 109° |
| 2026-05-05 04:08 | 38.82243 | 26.50599 | 37058 ft | 471 kts | 96° |
| 2026-05-05 04:09 | 38.81324 | 26.58901 | 37083 ft | 471 kts | 95° |
| 2026-05-05 04:09 | 38.80364 | 26.67225 | 37070 ft | 473 kts | 96° |
| 2026-05-05 04:10 | 38.79338 | 26.75559 | 37067 ft | 474 kts | 96° |
| 2026-05-05 04:10 | 38.78295 | 26.83896 | 37060 ft | 474 kts | 96° |
| 2026-05-05 04:11 | 38.77201 | 26.92231 | 37060 ft | 476 kts | 101° |
| 2026-05-05 04:11 | 38.74690 | 27.00094 | 37061 ft | 481 kts | 120° |
| 2026-05-05 04:12 | 38.70718 | 27.07012 | 37048 ft | 482 kts | 126° |
| 2026-05-05 04:12 | 38.66608 | 27.13794 | 37053 ft | 482 kts | 126° |
| 2026-05-05 04:13 | 38.62550 | 27.20607 | 37063 ft | 481 kts | 125° |
| 2026-05-05 04:13 | 38.58540 | 27.27397 | 37059 ft | 481 kts | 125° |
| 2026-05-05 04:14 | 38.54504 | 27.34220 | 37057 ft | 481 kts | 125° |
| 2026-05-05 04:14 | 38.50463 | 27.41028 | 37048 ft | 481 kts | 125° |
| 2026-05-05 04:15 | 38.46419 | 27.47820 | 37059 ft | 480 kts | 125° |
| 2026-05-05 04:15 | 38.42378 | 27.54595 | 37051 ft | 480 kts | 125° |
| 2026-05-05 04:16 | 38.38333 | 27.61366 | 37048 ft | 480 kts | 125° |
| 2026-05-05 04:16 | 38.34281 | 27.68135 | 37025 ft | 481 kts | 125° |
| 2026-05-05 04:17 | 38.30222 | 27.74903 | 37037 ft | 480 kts | 125° |
| 2026-05-05 04:17 | 38.26163 | 27.81658 | 37040 ft | 481 kts | 125° |
| 2026-05-05 04:18 | 38.22095 | 27.88417 | 37034 ft | 481 kts | 125° |
| 2026-05-05 04:18 | 38.18024 | 27.95171 | 37035 ft | 482 kts | 125° |
| 2026-05-05 04:19 | 38.13945 | 28.01929 | 37035 ft | 482 kts | 126° |
| 2026-05-05 04:19 | 38.09850 | 28.08698 | 37055 ft | 484 kts | 125° |
| 2026-05-05 04:20 | 38.05738 | 28.15482 | 37039 ft | 486 kts | 125° |
| 2026-05-05 04:20 | 38.01610 | 28.22278 | 37021 ft | 487 kts | 125° |
| 2026-05-05 04:21 | 37.97473 | 28.29075 | 37025 ft | 486 kts | 126° |
| 2026-05-05 04:21 | 37.93338 | 28.35854 | 37023 ft | 486 kts | 126° |
| 2026-05-05 04:22 | 37.89224 | 28.42585 | 37031 ft | 486 kts | 126° |
| 2026-05-05 04:22 | 37.85078 | 28.49354 | 37030 ft | 487 kts | 126° |
| 2026-05-05 04:23 | 37.80926 | 28.56121 | 37021 ft | 487 kts | 126° |
| 2026-05-05 04:23 | 37.76770 | 28.62882 | 37017 ft | 487 kts | 126° |
| 2026-05-05 04:24 | 37.72644 | 28.69667 | 37020 ft | 486 kts | 122° |
| 2026-05-05 04:25 | 37.68192 | 28.81050 | 37021 ft | 482 kts | 111° |
| 2026-05-05 04:25 | 37.65466 | 28.88778 | 37021 ft | 482 kts | 111° |
| 2026-05-05 04:25 | 37.64074 | 28.92657 | 36593 ft | 488 kts | 111° |
| 2026-05-05 04:26 | 37.62663 | 28.96551 | 36103 ft | 486 kts | 111° |
| 2026-05-05 04:26 | 37.61251 | 29.00418 | 35459 ft | 487 kts | 111° |
| 2026-05-05 04:26 | 37.59830 | 29.04295 | 34821 ft | 487 kts | 111° |
| 2026-05-05 04:26 | 37.58404 | 29.08183 | 34173 ft | 488 kts | 110° |
| 2026-05-05 04:27 | 37.56978 | 29.12070 | 33390 ft | 490 kts | 110° |
| 2026-05-05 04:27 | 37.55543 | 29.15978 | 32655 ft | 491 kts | 110° |
| 2026-05-05 04:27 | 37.54109 | 29.19880 | 31896 ft | 492 kts | 110° |
| 2026-05-05 04:27 | 37.52689 | 29.23740 | 31167 ft | 493 kts | 110° |
| 2026-05-05 04:28 | 37.51223 | 29.27719 | 30386 ft | 495 kts | 109° |
| 2026-05-05 04:28 | 37.49790 | 29.31609 | 29467 ft | 498 kts | 109° |
| 2026-05-05 04:28 | 37.48328 | 29.35568 | 28545 ft | 499 kts | 109° |
| 2026-05-05 04:28 | 37.46862 | 29.39532 | 27614 ft | 500 kts | 109° |
| 2026-05-05 04:29 | 37.45390 | 29.43501 | 26656 ft | 501 kts | 110° |
| 2026-05-05 04:29 | 37.43897 | 29.47424 | 26350 ft | 489 kts | 110° |
| 2026-05-05 04:29 | 37.42429 | 29.51214 | 26111 ft | 475 kts | 110° |
| 2026-05-05 04:29 | 37.40998 | 29.54903 | 25928 ft | 462 kts | 110° |
| 2026-05-05 04:30 | 37.39614 | 29.58488 | 25725 ft | 450 kts | 109° |
| 2026-05-05 04:30 | 37.38268 | 29.61987 | 25546 ft | 439 kts | 109° |
| 2026-05-05 04:30 | 37.36953 | 29.65404 | 25344 ft | 428 kts | 109° |
| 2026-05-05 04:30 | 37.35667 | 29.68727 | 25181 ft | 418 kts | 110° |
| 2026-05-05 04:31 | 37.33981 | 29.71707 | 24974 ft | 423 kts | 132° |
| 2026-05-05 04:31 | 37.31626 | 29.73886 | 24788 ft | 421 kts | 150° |
| 2026-05-05 04:31 | 37.28969 | 29.75386 | 24600 ft | 415 kts | 155° |
| 2026-05-05 04:31 | 37.26312 | 29.76760 | 24373 ft | 411 kts | 155° |
| 2026-05-05 04:32 | 37.23687 | 29.78135 | 24172 ft | 407 kts | 155° |
| 2026-05-05 04:32 | 37.21093 | 29.79542 | 23940 ft | 406 kts | 152° |
| 2026-05-05 04:32 | 37.18794 | 29.81552 | 23688 ft | 401 kts | 126° |
| 2026-05-05 04:32 | 37.17358 | 29.84447 | 23503 ft | 385 kts | 102° |
| 2026-05-05 04:33 | 37.16779 | 29.87637 | 23237 ft | 368 kts | 85° |
| 2026-05-05 04:33 | 37.16751 | 29.90795 | 22988 ft | 360 kts | 84° |
| 2026-05-05 04:33 | 37.16468 | 29.93919 | 22522 ft | 361 kts | 91° |
| 2026-05-05 04:33 | 37.16024 | 29.97011 | 21913 ft | 360 kts | 92° |
| 2026-05-05 04:34 | 37.15558 | 30.00058 | 21325 ft | 359 kts | 92° |
| 2026-05-05 04:34 | 37.15100 | 30.03119 | 20797 ft | 355 kts | 92° |
| 2026-05-05 04:34 | 37.14664 | 30.06152 | 20279 ft | 351 kts | 92° |
| 2026-05-05 04:34 | 37.14249 | 30.09153 | 19742 ft | 347 kts | 91° |
| 2026-05-05 04:35 | 37.13851 | 30.12118 | 19240 ft | 344 kts | 91° |
| 2026-05-05 04:35 | 37.13459 | 30.15063 | 18710 ft | 342 kts | 91° |
| 2026-05-05 04:35 | 37.13074 | 30.17983 | 18234 ft | 338 kts | 91° |
| 2026-05-05 04:35 | 37.12694 | 30.20872 | 17697 ft | 334 kts | 91° |
| 2026-05-05 04:36 | 37.12317 | 30.23730 | 17178 ft | 330 kts | 92° |
| 2026-05-05 04:36 | 37.11945 | 30.26552 | 16664 ft | 327 kts | 92° |
| 2026-05-05 04:36 | 37.11577 | 30.29347 | 16129 ft | 324 kts | 92° |
| 2026-05-05 04:36 | 37.11211 | 30.32112 | 15645 ft | 320 kts | 93° |
| 2026-05-05 04:37 | 37.10848 | 30.34849 | 15163 ft | 317 kts | 93° |
| 2026-05-05 04:37 | 37.10489 | 30.37550 | 14743 ft | 312 kts | 94° |
| 2026-05-05 04:37 | 37.10137 | 30.40197 | 14416 ft | 304 kts | 94° |
| 2026-05-05 04:37 | 37.09793 | 30.42775 | 14092 ft | 297 kts | 94° |
| 2026-05-05 04:38 | 37.09569 | 30.44448 | 13902 ft | 291 kts | 94° |
| 2026-05-05 04:38 | 37.09237 | 30.46922 | 13596 ft | 287 kts | 94° |
| 2026-05-05 04:38 | 37.08753 | 30.50213 | 13193 ft | 295 kts | 101° |
| 2026-05-05 04:38 | 37.08039 | 30.52673 | 12905 ft | 305 kts | 108° |
| 2026-05-05 04:39 | 37.07476 | 30.54332 | 12670 ft | 308 kts | 108° |
| 2026-05-05 04:39 | 37.06373 | 30.57594 | 12260 ft | 305 kts | 108° |
| 2026-05-05 04:39 | 37.05841 | 30.59216 | 12065 ft | 304 kts | 107° |
| 2026-05-05 04:39 | 37.05055 | 30.61658 | 11752 ft | 302 kts | 107° |
| 2026-05-05 04:40 | 37.04279 | 30.64092 | 11446 ft | 300 kts | 107° |
| 2026-05-05 04:40 | 37.03248 | 30.66367 | 11113 ft | 307 kts | 130° |
| 2026-05-05 04:40 | 37.01479 | 30.67859 | 10830 ft | 311 kts | 159° |
| 2026-05-05 04:40 | 36.99350 | 30.68273 | 10550 ft | 312 kts | 181° |
| 2026-05-05 04:41 | 36.97183 | 30.68090 | 10273 ft | 311 kts | 185° |
| 2026-05-05 04:41 | 36.95023 | 30.67864 | 9953 ft | 311 kts | 185° |
| 2026-05-05 04:41 | 36.92900 | 30.67661 | 9874 ft | 300 kts | 184° |
| 2026-05-05 04:41 | 36.90807 | 30.67473 | 9354 ft | 299 kts | 184° |
| 2026-05-05 04:42 | 36.88754 | 30.67297 | 9024 ft | 292 kts | 184° |
| 2026-05-05 04:42 | 36.86727 | 30.67128 | 8724 ft | 293 kts | 184° |
| 2026-05-05 04:42 | 36.84692 | 30.66959 | 8431 ft | 293 kts | 184° |
| 2026-05-05 04:42 | 36.82652 | 30.66790 | 8137 ft | 294 kts | 184° |
| 2026-05-05 04:43 | 36.80610 | 30.66621 | 7849 ft | 294 kts | 184° |
| 2026-05-05 04:43 | 36.78566 | 30.66451 | 7557 ft | 294 kts | 184° |
| 2026-05-05 04:43 | 36.76538 | 30.66283 | 7248 ft | 289 kts | 184° |
| 2026-05-05 04:43 | 36.74559 | 30.66119 | 6975 ft | 281 kts | 184° |
| 2026-05-05 04:44 | 36.72629 | 30.65959 | 6700 ft | 276 kts | 183° |
| 2026-05-05 04:44 | 36.70716 | 30.65801 | 6444 ft | 275 kts | 184° |
| 2026-05-05 04:44 | 36.68804 | 30.65643 | 6167 ft | 275 kts | 184° |
| 2026-05-05 04:44 | 36.66895 | 30.65485 | 5877 ft | 275 kts | 183° |
| 2026-05-05 04:45 | 36.65016 | 30.65774 | 5565 ft | 273 kts | 154° |
| 2026-05-05 04:45 | 36.63531 | 30.67141 | 5317 ft | 263 kts | 124° |
| 2026-05-05 04:45 | 36.62657 | 30.69074 | 5064 ft | 254 kts | 104° |
| 2026-05-05 04:45 | 36.62143 | 30.71161 | 4810 ft | 251 kts | 101° |
| 2026-05-05 04:46 | 36.61886 | 30.73276 | 4525 ft | 245 kts | 86° |
| 2026-05-05 04:46 | 36.61852 | 30.75365 | 4244 ft | 244 kts | 83° |
| 2026-05-05 04:46 | 36.62233 | 30.77348 | 3941 ft | 232 kts | 51° |
| 2026-05-05 04:46 | 36.63435 | 30.78502 | 3762 ft | 216 kts | 13° |
| 2026-05-05 04:47 | 36.64882 | 30.78387 | 3587 ft | 209 kts | 341° |
| 2026-05-05 04:47 | 36.66223 | 30.77732 | 3419 ft | 205 kts | 340° |
| 2026-05-05 04:47 | 36.67539 | 30.77092 | 3232 ft | 202 kts | 340° |
| 2026-05-05 04:47 | 36.68859 | 30.76529 | 2987 ft | 199 kts | 351° |
| 2026-05-05 04:48 | 36.70191 | 30.76623 | 2974 ft | 185 kts | 5° |
| 2026-05-05 04:48 | 36.71430 | 30.76758 | 2941 ft | 175 kts | 2° |
| 2026-05-05 04:48 | 36.72633 | 30.76889 | 2932 ft | 173 kts | 3° |
| 2026-05-05 04:48 | 36.73822 | 30.77040 | 2931 ft | 169 kts | 4° |
| 2026-05-05 04:49 | 36.74983 | 30.77198 | 2853 ft | 166 kts | 3° |
| 2026-05-05 04:49 | 36.76114 | 30.77353 | 2639 ft | 158 kts | 3° |
| 2026-05-05 04:49 | 36.77193 | 30.77501 | 2437 ft | 155 kts | 4° |
| 2026-05-05 04:49 | 36.78251 | 30.77647 | 2226 ft | 149 kts | 4° |
| 2026-05-05 04:50 | 36.79256 | 30.77786 | 2019 ft | 143 kts | 4° |
| 2026-05-05 04:50 | 36.80242 | 30.77922 | 1854 ft | 140 kts | 4° |
| 2026-05-05 04:50 | 36.81212 | 30.78055 | 1645 ft | 140 kts | 4° |
| 2026-05-05 04:50 | 36.82139 | 30.78183 | 1448 ft | 134 kts | 5° |
| 2026-05-05 04:51 | 36.83059 | 30.78309 | 1279 ft | 133 kts | 5° |
| 2026-05-05 04:51 | 36.83983 | 30.78437 | 1098 ft | 134 kts | 4° |
| 2026-05-05 04:51 | 36.84913 | 30.78570 | 914 ft | 136 kts | 2° |
| 2026-05-05 04:51 | 36.85862 | 30.78700 | 738 ft | 138 kts | 1° |
| 2026-05-05 04:52 | 36.86788 | 30.78819 | 631 ft | 133 kts | 1° |
| 2026-05-05 04:52 | 36.87726 | 30.78946 | 434 ft | 135 kts | 4° |
| 2026-05-05 04:52 | 36.88658 | 30.79082 | 216 ft | 139 kts | 4° |
| 2026-05-05 04:52 | 36.89543 | 30.79203 | 185 ft | 109 kts | 6° |
| 2026-05-05 04:53 | 36.90147 | 30.79288 | 197 ft | 65 kts | 6° |
| 2026-05-05 04:53 | 36.90461 | 30.79329 | 189 ft | 37 kts | 6° |
| 2026-05-05 04:53 | 36.90663 | 30.79394 | 201 ft | 28 kts | 29° |
| 2026-05-05 04:53 | 36.90767 | 30.79495 | 194 ft | 18 kts | 42° |
| 2026-05-05 04:54 | 36.90857 | 30.79593 | 200 ft | 17 kts | 34° |
| 2026-05-05 04:54 | 36.90969 | 30.79621 | 204 ft | 16 kts | 7° |
| 2026-05-05 04:54 | 36.91081 | 30.79637 | 190 ft | 17 kts | 6° |
| 2026-05-05 04:54 | 36.91182 | 30.79656 | 190 ft | 12 kts | 23° |
| 2026-05-05 04:55 | 36.91208 | 30.79744 | 200 ft | 11 kts | 92° |
| 2026-05-05 04:55 | 36.91206 | 30.79842 | 201 ft | 11 kts | 91° |
| 2026-05-05 04:55 | 36.91231 | 30.79883 | 195 ft | 4 kts | 17° |
| 2026-05-05 04:55 | 36.91260 | 30.79902 | 204 ft | 6 kts | 56° |
| 2026-05-05 04:56 | 36.91261 | 30.79963 | 203 ft | 7 kts | 97° |
| 2026-05-05 04:56 | 36.91254 | 30.80025 | 190 ft | 7 kts | 96° |
| 2026-05-05 04:56 | 36.91251 | 30.80060 | 190 ft | 2 kts | 97° |
| 2026-05-05 04:56 | 36.91251 | 30.80064 | 190 ft | 1 kts | 97° |
| 2026-05-05 04:57 | 36.91251 | 30.80065 | 190 ft | 0 kts | 97° |